sensor_id;sensor_type;location;lat;lon;timestamp;temperature;humidity
37380;DHT22;23252;-33.992;18.480;2023-01-10T00:01:45;22.00;99.90
37380;DHT22;23252;-33.992;18.480;2023-01-10T00:04:11;21.90;99.90
37380;DHT22;23252;-33.992;18.480;2023-01-10T00:06:38;21.90;99.90
37380;DHT22;23252;-33.992;18.480;2023-01-10T00:09:05;21.90;99.90
37380;DHT22;23252;-33.992;18.480;2023-01-10T00:11:31;22.00;99.90
37380;DHT22;23252;-33.992;18.480;2023-01-10T00:14:16;22.00;99.90
37380;DHT22;23252;-33.992;18.480;2023-01-10T00:16:42;22.00;99.90
37380;DHT22;23252;-33.992;18.480;2023-01-10T00:19:09;22.00;99.90
37380;DHT22;23252;-33.992;18.480;2023-01-10T00:21:36;22.00;99.90
37380;DHT22;23252;-33.992;18.480;2023-01-10T00:24:05;22.00;99.90
37380;DHT22;23252;-33.992;18.480;2023-01-10T00:26:49;22.00;99.90
37380;DHT22;23252;-33.992;18.480;2023-01-10T00:29:20;22.00;99.90
37380;DHT22;23252;-33.992;18.480;2023-01-10T00:31:47;22.10;99.90
37380;DHT22;23252;-33.992;18.480;2023-01-10T00:34:14;22.10;99.90
37380;DHT22;23252;-33.992;18.480;2023-01-10T00:36:41;22.20;99.90
37380;DHT22;23252;-33.992;18.480;2023-01-10T00:39:08;22.20;99.90
37380;DHT22;23252;-33.992;18.480;2023-01-10T00:41:36;22.20;99.90
37380;DHT22;23252;-33.992;18.480;2023-01-10T00:44:20;22.10;99.90
37380;DHT22;23252;-33.992;18.480;2023-01-10T00:46:47;22.00;99.90
37380;DHT22;23252;-33.992;18.480;2023-01-10T00:49:13;21.90;99.90
37380;DHT22;23252;-33.992;18.480;2023-01-10T00:51:42;21.80;99.90
37380;DHT22;23252;-33.992;18.480;2023-01-10T00:54:09;21.80;99.90
37380;DHT22;23252;-33.992;18.480;2023-01-10T00:56:36;21.50;99.90
37380;DHT22;23252;-33.992;18.480;2023-01-10T00:59:03;21.40;99.90
37380;DHT22;23252;-33.992;18.480;2023-01-10T01:01:29;21.20;99.90
37380;DHT22;23252;-33.992;18.480;2023-01-10T01:03:56;21.10;99.90
37380;DHT22;23252;-33.992;18.480;2023-01-10T01:06:24;21.20;99.90
37380;DHT22;23252;-33.992;18.480;2023-01-10T01:08:51;21.10;99.90
37380;DHT22;23252;-33.992;18.480;2023-01-10T01:11:17;21.10;99.90
37380;DHT22;23252;-33.992;18.480;2023-01-10T01:13:44;21.00;99.90
37380;DHT22;23252;-33.992;18.480;2023-01-10T01:16:11;21.00;99.90
37380;DHT22;23252;-33.992;18.480;2023-01-10T01:18:37;21.00;99.90
37380;DHT22;23252;-33.992;18.480;2023-01-10T01:21:04;21.00;99.90
37380;DHT22;23252;-33.992;18.480;2023-01-10T01:23:33;20.90;99.90
37380;DHT22;23252;-33.992;18.480;2023-01-10T01:26:00;20.80;99.90
37380;DHT22;23252;-33.992;18.480;2023-01-10T01:28:26;20.70;99.90
37380;DHT22;23252;-33.992;18.480;2023-01-10T01:30:53;20.50;99.90
37380;DHT22;23252;-33.992;18.480;2023-01-10T01:33:20;20.50;99.90
37380;DHT22;23252;-33.992;18.480;2023-01-10T01:35:47;20.30;99.90
37380;DHT22;23252;-33.992;18.480;2023-01-10T01:38:15;20.30;99.90
37380;DHT22;23252;-33.992;18.480;2023-01-10T01:40:42;20.10;99.90
37380;DHT22;23252;-33.992;18.480;2023-01-10T01:43:26;20.00;99.90
37380;DHT22;23252;-33.992;18.480;2023-01-10T01:45:54;19.90;99.90
37380;DHT22;23252;-33.992;18.480;2023-01-10T01:48:28;19.80;99.90
37380;DHT22;23252;-33.992;18.480;2023-01-10T01:51:00;19.70;99.90
37380;DHT22;23252;-33.992;18.480;2023-01-10T01:58:48;19.70;99.90
37380;DHT22;23252;-33.992;18.480;2023-01-10T02:01:16;19.70;99.90
37380;DHT22;23252;-33.992;18.480;2023-01-10T02:03:45;19.70;99.90
37380;DHT22;23252;-33.992;18.480;2023-01-10T02:06:15;19.70;99.90
37380;DHT22;23252;-33.992;18.480;2023-01-10T02:08:48;19.70;99.90
37380;DHT22;23252;-33.992;18.480;2023-01-10T02:11:17;19.70;99.90
37380;DHT22;23252;-33.992;18.480;2023-01-10T02:13:45;19.70;99.90
37380;DHT22;23252;-33.992;18.480;2023-01-10T02:16:12;19.60;99.90
37380;DHT22;23252;-33.992;18.480;2023-01-10T02:18:39;19.60;99.90
37380;DHT22;23252;-33.992;18.480;2023-01-10T02:24:21;19.50;99.90
37380;DHT22;23252;-33.992;18.480;2023-01-10T02:27:08;19.60;99.90
37380;DHT22;23252;-33.992;18.480;2023-01-10T02:35:24;19.50;99.90
37380;DHT22;23252;-33.992;18.480;2023-01-10T02:38:03;19.40;99.90
37380;DHT22;23252;-33.992;18.480;2023-01-10T02:43:16;19.30;99.90
37380;DHT22;23252;-33.992;18.480;2023-01-10T02:48:21;19.20;99.90
37380;DHT22;23252;-33.992;18.480;2023-01-10T02:51:21;19.20;99.90
37380;DHT22;23252;-33.992;18.480;2023-01-10T02:53:47;19.20;99.90
37380;DHT22;23252;-33.992;18.480;2023-01-10T02:56:33;19.30;99.90
37380;DHT22;23252;-33.992;18.480;2023-01-10T03:04:42;19.70;99.90
37380;DHT22;23252;-33.992;18.480;2023-01-10T03:10:09;19.60;99.90
37380;DHT22;23252;-33.992;18.480;2023-01-10T03:12:47;19.60;99.90
37380;DHT22;23252;-33.992;18.480;2023-01-10T03:15:17;19.60;99.90
37380;DHT22;23252;-33.992;18.480;2023-01-10T03:17:46;19.50;99.90
37380;DHT22;23252;-33.992;18.480;2023-01-10T03:20:17;19.50;99.90
37380;DHT22;23252;-33.992;18.480;2023-01-10T03:22:46;19.50;99.90
37380;DHT22;23252;-33.992;18.480;2023-01-10T03:25:14;19.50;99.90
37380;DHT22;23252;-33.992;18.480;2023-01-10T03:32:58;19.40;99.90
37380;DHT22;23252;-33.992;18.480;2023-01-10T03:35:36;19.50;99.90
37380;DHT22;23252;-33.992;18.480;2023-01-10T03:38:12;19.50;99.90
37380;DHT22;23252;-33.992;18.480;2023-01-10T03:40:56;19.40;99.90
37380;DHT22;23252;-33.992;18.480;2023-01-10T03:43:39;19.30;99.90
37380;DHT22;23252;-33.992;18.480;2023-01-10T03:46:51;19.30;99.90
37380;DHT22;23252;-33.992;18.480;2023-01-10T03:49:21;19.20;99.90
37380;DHT22;23252;-33.992;18.480;2023-01-10T03:51:50;19.20;99.90
37380;DHT22;23252;-33.992;18.480;2023-01-10T03:54:18;19.10;99.90
37380;DHT22;23252;-33.992;18.480;2023-01-10T03:56:46;19.10;99.90
37380;DHT22;23252;-33.992;18.480;2023-01-10T03:59:20;19.20;99.90
37380;DHT22;23252;-33.992;18.480;2023-01-10T04:01:47;19.20;99.90
37380;DHT22;23252;-33.992;18.480;2023-01-10T04:04:13;19.20;99.90
37380;DHT22;23252;-33.992;18.480;2023-01-10T04:06:40;19.10;99.90
37380;DHT22;23252;-33.992;18.480;2023-01-10T04:09:07;19.00;99.90
37380;DHT22;23252;-33.992;18.480;2023-01-10T04:11:33;19.10;99.90
37380;DHT22;23252;-33.992;18.480;2023-01-10T04:14:00;19.10;99.90
37380;DHT22;23252;-33.992;18.480;2023-01-10T04:16:27;19.00;99.90
37380;DHT22;23252;-33.992;18.480;2023-01-10T04:18:53;19.00;99.90
37380;DHT22;23252;-33.992;18.480;2023-01-10T04:21:20;19.00;99.90
37380;DHT22;23252;-33.992;18.480;2023-01-10T04:23:47;19.10;99.90
37380;DHT22;23252;-33.992;18.480;2023-01-10T04:26:13;19.10;99.90
37380;DHT22;23252;-33.992;18.480;2023-01-10T04:28:40;19.10;99.90
37380;DHT22;23252;-33.992;18.480;2023-01-10T04:31:06;19.20;99.90
37380;DHT22;23252;-33.992;18.480;2023-01-10T04:33:33;19.20;99.90
37380;DHT22;23252;-33.992;18.480;2023-01-10T04:35:59;19.10;99.90
37380;DHT22;23252;-33.992;18.480;2023-01-10T04:38:26;19.10;99.90
37380;DHT22;23252;-33.992;18.480;2023-01-10T04:40:54;19.10;99.90
37380;DHT22;23252;-33.992;18.480;2023-01-10T04:43:22;19.10;99.90
37380;DHT22;23252;-33.992;18.480;2023-01-10T04:45:49;19.20;99.90
37380;DHT22;23252;-33.992;18.480;2023-01-10T04:48:16;19.20;99.90
37380;DHT22;23252;-33.992;18.480;2023-01-10T04:50:47;19.30;99.90
37380;DHT22;23252;-33.992;18.480;2023-01-10T04:53:14;19.40;99.90
37380;DHT22;23252;-33.992;18.480;2023-01-10T04:55:40;19.40;99.90
37380;DHT22;23252;-33.992;18.480;2023-01-10T04:58:07;19.30;99.90
37380;DHT22;23252;-33.992;18.480;2023-01-10T05:00:34;19.40;99.90
37380;DHT22;23252;-33.992;18.480;2023-01-10T05:03:00;19.50;99.90
37380;DHT22;23252;-33.992;18.480;2023-01-10T05:05:27;19.50;99.90
37380;DHT22;23252;-33.992;18.480;2023-01-10T05:07:54;19.50;99.90
37380;DHT22;23252;-33.992;18.480;2023-01-10T05:10:20;19.50;99.90
37380;DHT22;23252;-33.992;18.480;2023-01-10T05:12:47;19.50;99.90
37380;DHT22;23252;-33.992;18.480;2023-01-10T05:15:14;19.60;99.90
37380;DHT22;23252;-33.992;18.480;2023-01-10T05:17:41;19.70;99.90
37380;DHT22;23252;-33.992;18.480;2023-01-10T05:20:07;19.80;99.90
37380;DHT22;23252;-33.992;18.480;2023-01-10T05:22:34;19.80;99.90
37380;DHT22;23252;-33.992;18.480;2023-01-10T05:25:01;19.90;99.90
37380;DHT22;23252;-33.992;18.480;2023-01-10T05:27:28;19.90;99.90
37380;DHT22;23252;-33.992;18.480;2023-01-10T05:29:54;19.90;99.90
37380;DHT22;23252;-33.992;18.480;2023-01-10T05:32:21;20.00;99.90
37380;DHT22;23252;-33.992;18.480;2023-01-10T05:34:48;20.10;99.90
37380;DHT22;23252;-33.992;18.480;2023-01-10T05:37:15;20.10;99.90
37380;DHT22;23252;-33.992;18.480;2023-01-10T05:39:41;20.20;99.90
37380;DHT22;23252;-33.992;18.480;2023-01-10T05:42:08;20.30;99.90
37380;DHT22;23252;-33.992;18.480;2023-01-10T05:44:35;20.40;99.90
37380;DHT22;23252;-33.992;18.480;2023-01-10T05:47:01;20.40;99.90
37380;DHT22;23252;-33.992;18.480;2023-01-10T05:49:28;20.40;99.90
37380;DHT22;23252;-33.992;18.480;2023-01-10T05:51:54;20.40;99.90
37380;DHT22;23252;-33.992;18.480;2023-01-10T05:54:21;20.50;99.90
37380;DHT22;23252;-33.992;18.480;2023-01-10T05:56:47;20.60;99.90
37380;DHT22;23252;-33.992;18.480;2023-01-10T05:59:14;20.60;99.90
37380;DHT22;23252;-33.992;18.480;2023-01-10T06:01:40;20.80;99.90
37380;DHT22;23252;-33.992;18.480;2023-01-10T06:04:07;20.90;99.90
37380;DHT22;23252;-33.992;18.480;2023-01-10T06:06:33;20.90;99.90
37380;DHT22;23252;-33.992;18.480;2023-01-10T06:09:00;21.00;99.90
37380;DHT22;23252;-33.992;18.480;2023-01-10T06:11:27;21.00;99.90
37380;DHT22;23252;-33.992;18.480;2023-01-10T06:13:56;21.10;99.90
37380;DHT22;23252;-33.992;18.480;2023-01-10T06:16:23;21.10;99.90
37380;DHT22;23252;-33.992;18.480;2023-01-10T06:18:54;21.20;99.90
37380;DHT22;23252;-33.992;18.480;2023-01-10T06:21:21;21.20;99.90
37380;DHT22;23252;-33.992;18.480;2023-01-10T06:23:47;21.30;99.90
37380;DHT22;23252;-33.992;18.480;2023-01-10T06:26:14;21.50;99.90
37380;DHT22;23252;-33.992;18.480;2023-01-10T06:28:41;21.50;99.90
37380;DHT22;23252;-33.992;18.480;2023-01-10T06:31:08;21.60;99.90
37380;DHT22;23252;-33.992;18.480;2023-01-10T06:33:35;21.60;99.90
37380;DHT22;23252;-33.992;18.480;2023-01-10T06:36:04;21.60;99.90
37380;DHT22;23252;-33.992;18.480;2023-01-10T06:38:30;21.60;99.90
37380;DHT22;23252;-33.992;18.480;2023-01-10T06:40:57;21.40;99.90
37380;DHT22;23252;-33.992;18.480;2023-01-10T06:43:24;21.40;99.90
37380;DHT22;23252;-33.992;18.480;2023-01-10T06:45:50;21.40;99.90
37380;DHT22;23252;-33.992;18.480;2023-01-10T06:48:17;21.30;99.90
37380;DHT22;23252;-33.992;18.480;2023-01-10T06:50:43;21.20;99.90
37380;DHT22;23252;-33.992;18.480;2023-01-10T06:53:10;21.20;99.90
37380;DHT22;23252;-33.992;18.480;2023-01-10T06:55:38;21.10;99.90
37380;DHT22;23252;-33.992;18.480;2023-01-10T06:58:05;21.10;99.90
37380;DHT22;23252;-33.992;18.480;2023-01-10T07:00:31;21.00;99.90
37380;DHT22;23252;-33.992;18.480;2023-01-10T07:03:00;20.90;99.90
37380;DHT22;23252;-33.992;18.480;2023-01-10T07:05:27;20.80;99.90
37380;DHT22;23252;-33.992;18.480;2023-01-10T07:07:55;20.80;99.90
37380;DHT22;23252;-33.992;18.480;2023-01-10T07:10:23;20.80;99.90
37380;DHT22;23252;-33.992;18.480;2023-01-10T07:12:49;20.80;99.90
37380;DHT22;23252;-33.992;18.480;2023-01-10T07:15:16;20.70;99.90
37380;DHT22;23252;-33.992;18.480;2023-01-10T07:17:45;20.70;99.90
37380;DHT22;23252;-33.992;18.480;2023-01-10T07:20:12;20.70;99.90
37380;DHT22;23252;-33.992;18.480;2023-01-10T07:22:39;20.70;99.90
37380;DHT22;23252;-33.992;18.480;2023-01-10T07:25:08;20.80;99.90
37380;DHT22;23252;-33.992;18.480;2023-01-10T07:27:35;20.80;99.90
37380;DHT22;23252;-33.992;18.480;2023-01-10T07:30:01;20.80;99.90
37380;DHT22;23252;-33.992;18.480;2023-01-10T07:32:28;20.90;99.90
37380;DHT22;23252;-33.992;18.480;2023-01-10T07:34:55;21.00;99.90
37380;DHT22;23252;-33.992;18.480;2023-01-10T07:37:21;21.10;99.90
37380;DHT22;23252;-33.992;18.480;2023-01-10T07:39:48;21.20;99.90
37380;DHT22;23252;-33.992;18.480;2023-01-10T07:42:14;21.20;99.90
37380;DHT22;23252;-33.992;18.480;2023-01-10T07:44:41;21.30;99.90
37380;DHT22;23252;-33.992;18.480;2023-01-10T07:47:10;21.50;99.90
37380;DHT22;23252;-33.992;18.480;2023-01-10T07:49:37;21.60;99.90
37380;DHT22;23252;-33.992;18.480;2023-01-10T07:52:03;21.60;99.90
37380;DHT22;23252;-33.992;18.480;2023-01-10T07:54:33;21.70;99.90
37380;DHT22;23252;-33.992;18.480;2023-01-10T07:57:00;21.80;99.90
37380;DHT22;23252;-33.992;18.480;2023-01-10T07:59:27;21.90;99.90
37380;DHT22;23252;-33.992;18.480;2023-01-10T08:01:53;22.00;99.90
37380;DHT22;23252;-33.992;18.480;2023-01-10T08:04:20;22.00;99.90
37380;DHT22;23252;-33.992;18.480;2023-01-10T08:06:46;22.10;99.90
37380;DHT22;23252;-33.992;18.480;2023-01-10T08:09:13;22.10;99.90
37380;DHT22;23252;-33.992;18.480;2023-01-10T08:11:39;22.20;99.90
37380;DHT22;23252;-33.992;18.480;2023-01-10T08:14:07;22.20;99.90
37380;DHT22;23252;-33.992;18.480;2023-01-10T08:16:34;22.30;99.90
37380;DHT22;23252;-33.992;18.480;2023-01-10T08:19:00;22.30;99.90
37380;DHT22;23252;-33.992;18.480;2023-01-10T08:21:27;22.40;99.90
37380;DHT22;23252;-33.992;18.480;2023-01-10T08:23:54;22.60;99.90
37380;DHT22;23252;-33.992;18.480;2023-01-10T08:26:20;22.50;99.90
37380;DHT22;23252;-33.992;18.480;2023-01-10T08:28:47;22.60;99.90
37380;DHT22;23252;-33.992;18.480;2023-01-10T08:31:13;22.60;99.90
37380;DHT22;23252;-33.992;18.480;2023-01-10T08:33:40;22.70;99.90
37380;DHT22;23252;-33.992;18.480;2023-01-10T08:36:14;22.80;99.90
37380;DHT22;23252;-33.992;18.480;2023-01-10T08:38:41;22.80;99.90
37380;DHT22;23252;-33.992;18.480;2023-01-10T08:41:08;22.80;99.90
37380;DHT22;23252;-33.992;18.480;2023-01-10T08:43:34;22.90;99.90
37380;DHT22;23252;-33.992;18.480;2023-01-10T08:46:01;23.00;99.90
37380;DHT22;23252;-33.992;18.480;2023-01-10T08:48:28;23.10;99.90
37380;DHT22;23252;-33.992;18.480;2023-01-10T08:50:57;23.20;99.90
37380;DHT22;23252;-33.992;18.480;2023-01-10T08:53:23;23.20;99.90
37380;DHT22;23252;-33.992;18.480;2023-01-10T08:55:56;23.30;99.90
37380;DHT22;23252;-33.992;18.480;2023-01-10T08:58:22;23.30;99.90
37380;DHT22;23252;-33.992;18.480;2023-01-10T09:00:49;23.40;99.90
37380;DHT22;23252;-33.992;18.480;2023-01-10T09:03:16;23.50;99.90
37380;DHT22;23252;-33.992;18.480;2023-01-10T09:05:44;23.60;99.90
37380;DHT22;23252;-33.992;18.480;2023-01-10T09:08:10;23.70;99.90
37380;DHT22;23252;-33.992;18.480;2023-01-10T09:10:37;23.80;99.90
37380;DHT22;23252;-33.992;18.480;2023-01-10T09:13:04;23.90;99.90
37380;DHT22;23252;-33.992;18.480;2023-01-10T09:15:35;23.90;99.90
37380;DHT22;23252;-33.992;18.480;2023-01-10T09:18:05;24.00;99.90
37380;DHT22;23252;-33.992;18.480;2023-01-10T09:20:34;24.00;99.90
37380;DHT22;23252;-33.992;18.480;2023-01-10T09:23:13;24.10;99.90
37380;DHT22;23252;-33.992;18.480;2023-01-10T09:25:46;24.20;99.90
37380;DHT22;23252;-33.992;18.480;2023-01-10T09:28:13;24.20;99.90
37380;DHT22;23252;-33.992;18.480;2023-01-10T09:30:40;24.30;99.90
37380;DHT22;23252;-33.992;18.480;2023-01-10T09:33:07;24.40;99.90
37380;DHT22;23252;-33.992;18.480;2023-01-10T09:35:38;24.50;99.90
37380;DHT22;23252;-33.992;18.480;2023-01-10T09:38:11;24.60;99.90
37380;DHT22;23252;-33.992;18.480;2023-01-10T09:43:53;24.80;99.90
37380;DHT22;23252;-33.992;18.480;2023-01-10T09:52:30;24.90;99.90
37380;DHT22;23252;-33.992;18.480;2023-01-10T09:55:03;24.90;99.90
37380;DHT22;23252;-33.992;18.480;2023-01-10T09:57:31;24.90;99.90
37380;DHT22;23252;-33.992;18.480;2023-01-10T09:59:59;25.00;99.90
37380;DHT22;23252;-33.992;18.480;2023-01-10T10:02:40;25.00;99.90
37380;DHT22;23252;-33.992;18.480;2023-01-10T10:05:22;25.00;99.90
37380;DHT22;23252;-33.992;18.480;2023-01-10T10:07:57;24.90;99.90
37380;DHT22;23252;-33.992;18.480;2023-01-10T10:15:42;25.10;99.90
37380;DHT22;23252;-33.992;18.480;2023-01-10T10:21:34;25.20;99.90
37380;DHT22;23252;-33.992;18.480;2023-01-10T10:26:53;25.20;99.90
37380;DHT22;23252;-33.992;18.480;2023-01-10T10:29:38;25.30;99.90
37380;DHT22;23252;-33.992;18.480;2023-01-10T10:35:29;25.60;99.90
37380;DHT22;23252;-33.992;18.480;2023-01-10T10:38:04;25.70;99.90
37380;DHT22;23252;-33.992;18.480;2023-01-10T10:40:35;25.90;99.90
37380;DHT22;23252;-33.992;18.480;2023-01-10T10:43:33;26.00;99.90
37380;DHT22;23252;-33.992;18.480;2023-01-10T10:46:22;26.00;99.90
37380;DHT22;23252;-33.992;18.480;2023-01-10T10:48:59;26.10;99.90
37380;DHT22;23252;-33.992;18.480;2023-01-10T10:51:50;26.30;99.90
37380;DHT22;23252;-33.992;18.480;2023-01-10T10:54:18;26.40;99.90
37380;DHT22;23252;-33.992;18.480;2023-01-10T10:56:45;26.60;99.90
37380;DHT22;23252;-33.992;18.480;2023-01-10T10:59:19;26.70;99.90
37380;DHT22;23252;-33.992;18.480;2023-01-10T11:01:48;26.70;99.90
37380;DHT22;23252;-33.992;18.480;2023-01-10T11:04:18;26.80;99.90
37380;DHT22;23252;-33.992;18.480;2023-01-10T11:06:46;26.70;99.90
37380;DHT22;23252;-33.992;18.480;2023-01-10T11:09:20;26.80;99.90
37380;DHT22;23252;-33.992;18.480;2023-01-10T11:11:54;27.00;99.90
37380;DHT22;23252;-33.992;18.480;2023-01-10T11:14:53;27.20;99.90
37380;DHT22;23252;-33.992;18.480;2023-01-10T11:17:28;27.50;99.90
37380;DHT22;23252;-33.992;18.480;2023-01-10T11:20:04;27.60;99.90
37380;DHT22;23252;-33.992;18.480;2023-01-10T11:22:37;27.80;99.90
37380;DHT22;23252;-33.992;18.480;2023-01-10T11:25:11;27.60;99.90
37380;DHT22;23252;-33.992;18.480;2023-01-10T11:27:59;27.50;99.90
37380;DHT22;23252;-33.992;18.480;2023-01-10T11:30:32;27.30;99.90
37380;DHT22;23252;-33.992;18.480;2023-01-10T11:33:06;27.20;99.90
37380;DHT22;23252;-33.992;18.480;2023-01-10T11:35:37;26.80;99.90
37380;DHT22;23252;-33.992;18.480;2023-01-10T11:38:17;26.60;99.90
37380;DHT22;23252;-33.992;18.480;2023-01-10T11:41:05;26.90;99.90
37380;DHT22;23252;-33.992;18.480;2023-01-10T11:43:37;27.20;99.90
37380;DHT22;23252;-33.992;18.480;2023-01-10T11:48:59;27.20;99.90
37380;DHT22;23252;-33.992;18.480;2023-01-10T11:51:35;27.30;99.90
37380;DHT22;23252;-33.992;18.480;2023-01-10T11:54:05;27.20;99.90
37380;DHT22;23252;-33.992;18.480;2023-01-10T11:56:34;26.90;99.90
37380;DHT22;23252;-33.992;18.480;2023-01-10T11:59:16;27.00;99.90
37380;DHT22;23252;-33.992;18.480;2023-01-10T12:01:59;27.40;99.90
37380;DHT22;23252;-33.992;18.480;2023-01-10T12:04:30;27.40;99.90
37380;DHT22;23252;-33.992;18.480;2023-01-10T12:07:01;27.40;99.90
37380;DHT22;23252;-33.992;18.480;2023-01-10T12:09:33;27.60;99.90
37380;DHT22;23252;-33.992;18.480;2023-01-10T12:12:21;27.90;99.90
37380;DHT22;23252;-33.992;18.480;2023-01-10T12:14:49;28.20;99.90
37380;DHT22;23252;-33.992;18.480;2023-01-10T12:19:57;29.40;99.90
37380;DHT22;23252;-33.992;18.480;2023-01-10T12:22:46;30.20;99.90
37380;DHT22;23252;-33.992;18.480;2023-01-10T12:25:25;30.80;99.90
37380;DHT22;23252;-33.992;18.480;2023-01-10T12:27:54;31.20;99.90
37380;DHT22;23252;-33.992;18.480;2023-01-10T12:30:42;31.50;99.90
37380;DHT22;23252;-33.992;18.480;2023-01-10T12:33:32;31.90;99.90
37380;DHT22;23252;-33.992;18.480;2023-01-10T12:39:14;33.00;99.90
37380;DHT22;23252;-33.992;18.480;2023-01-10T12:41:44;33.70;99.90
37380;DHT22;23252;-33.992;18.480;2023-01-10T12:44:38;34.10;99.70
37380;DHT22;23252;-33.992;18.480;2023-01-10T12:47:29;34.50;98.90
37380;DHT22;23252;-33.992;18.480;2023-01-10T12:52:40;35.00;98.00
37380;DHT22;23252;-33.992;18.480;2023-01-10T12:55:17;35.40;97.70
37380;DHT22;23252;-33.992;18.480;2023-01-10T12:57:50;35.30;97.30
37380;DHT22;23252;-33.992;18.480;2023-01-10T13:00:41;35.80;97.40
37380;DHT22;23252;-33.992;18.480;2023-01-10T13:03:23;35.80;97.20
37380;DHT22;23252;-33.992;18.480;2023-01-10T13:05:51;36.30;96.70
37380;DHT22;23252;-33.992;18.480;2023-01-10T13:08:24;36.90;96.20
37380;DHT22;23252;-33.992;18.480;2023-01-10T13:10:54;37.10;95.90
37380;DHT22;23252;-33.992;18.480;2023-01-10T13:13:32;37.30;95.90
37380;DHT22;23252;-33.992;18.480;2023-01-10T13:19:02;37.60;95.10
37380;DHT22;23252;-33.992;18.480;2023-01-10T13:21:31;37.80;95.20
37380;DHT22;23252;-33.992;18.480;2023-01-10T13:29:17;37.00;96.40
37380;DHT22;23252;-33.992;18.480;2023-01-10T13:31:45;37.20;97.00
37380;DHT22;23252;-33.992;18.480;2023-01-10T13:34:16;37.50;97.30
37380;DHT22;23252;-33.992;18.480;2023-01-10T13:39:36;36.80;97.10
37380;DHT22;23252;-33.992;18.480;2023-01-10T13:42:09;36.60;97.10
37380;DHT22;23252;-33.992;18.480;2023-01-10T13:55:54;37.90;94.90
37380;DHT22;23252;-33.992;18.480;2023-01-10T14:01:35;38.50;95.00
37380;DHT22;23252;-33.992;18.480;2023-01-10T14:04:31;38.60;94.70
37380;DHT22;23252;-33.992;18.480;2023-01-10T14:10:10;38.40;94.10
37380;DHT22;23252;-33.992;18.480;2023-01-10T14:13:15;38.40;94.40
37380;DHT22;23252;-33.992;18.480;2023-01-10T14:15:45;38.30;94.30
37380;DHT22;23252;-33.992;18.480;2023-01-10T14:18:38;38.00;94.50
37380;DHT22;23252;-33.992;18.480;2023-01-10T14:21:08;37.60;94.40
37380;DHT22;23252;-33.992;18.480;2023-01-10T14:23:40;37.80;94.20
37380;DHT22;23252;-33.992;18.480;2023-01-10T14:26:35;38.20;94.30
37380;DHT22;23252;-33.992;18.480;2023-01-10T14:29:07;38.10;93.80
37380;DHT22;23252;-33.992;18.480;2023-01-10T14:31:41;37.90;93.80
37380;DHT22;23252;-33.992;18.480;2023-01-10T14:34:20;38.00;94.00
37380;DHT22;23252;-33.992;18.480;2023-01-10T14:39:49;38.10;93.80
37380;DHT22;23252;-33.992;18.480;2023-01-10T14:42:18;38.10;93.70
37380;DHT22;23252;-33.992;18.480;2023-01-10T14:47:34;38.00;93.60
37380;DHT22;23252;-33.992;18.480;2023-01-10T14:50:03;38.20;93.60
37380;DHT22;23252;-33.992;18.480;2023-01-10T14:52:31;38.70;92.50
37380;DHT22;23252;-33.992;18.480;2023-01-10T14:55:13;38.30;92.10
37380;DHT22;23252;-33.992;18.480;2023-01-10T14:57:53;37.80;91.70
37380;DHT22;23252;-33.992;18.480;2023-01-10T15:00:26;37.70;91.90
37380;DHT22;23252;-33.992;18.480;2023-01-10T15:02:58;37.20;91.90
37380;DHT22;23252;-33.992;18.480;2023-01-10T15:05:30;37.20;92.10
37380;DHT22;23252;-33.992;18.480;2023-01-10T15:08:19;36.90;92.60
37380;DHT22;23252;-33.992;18.480;2023-01-10T15:10:47;37.40;92.90
37380;DHT22;23252;-33.992;18.480;2023-01-10T15:13:17;37.90;92.70
37380;DHT22;23252;-33.992;18.480;2023-01-10T15:15:48;38.10;92.70
37380;DHT22;23252;-33.992;18.480;2023-01-10T15:18:23;38.40;92.50
37380;DHT22;23252;-33.992;18.480;2023-01-10T15:20:53;38.60;92.30
37380;DHT22;23252;-33.992;18.480;2023-01-10T15:23:20;38.40;92.40
37380;DHT22;23252;-33.992;18.480;2023-01-10T15:25:56;38.40;92.50
37380;DHT22;23252;-33.992;18.480;2023-01-10T15:28:23;38.30;92.80
37380;DHT22;23252;-33.992;18.480;2023-01-10T15:30:52;38.30;94.00
37380;DHT22;23252;-33.992;18.480;2023-01-10T15:33:27;38.10;94.40
37380;DHT22;23252;-33.992;18.480;2023-01-10T15:36:27;37.80;94.50
37380;DHT22;23252;-33.992;18.480;2023-01-10T15:39:00;38.10;94.40
37380;DHT22;23252;-33.992;18.480;2023-01-10T15:41:27;38.40;94.40
37380;DHT22;23252;-33.992;18.480;2023-01-10T15:47:01;38.00;94.40
37380;DHT22;23252;-33.992;18.480;2023-01-10T15:49:27;37.90;94.50
37380;DHT22;23252;-33.992;18.480;2023-01-10T15:51:57;38.00;94.30
37380;DHT22;23252;-33.992;18.480;2023-01-10T15:56:50;37.90;93.80
37380;DHT22;23252;-33.992;18.480;2023-01-10T15:59:22;37.30;93.90
37380;DHT22;23252;-33.992;18.480;2023-01-10T16:04:34;36.30;94.30
37380;DHT22;23252;-33.992;18.480;2023-01-10T16:09:55;36.30;94.20
37380;DHT22;23252;-33.992;18.480;2023-01-10T16:12:35;35.90;94.20
37380;DHT22;23252;-33.992;18.480;2023-01-10T16:15:31;36.10;94.40
37380;DHT22;23252;-33.992;18.480;2023-01-10T16:18:00;35.90;94.20
37380;DHT22;23252;-33.992;18.480;2023-01-10T16:20:36;35.70;94.30
37380;DHT22;23252;-33.992;18.480;2023-01-10T16:23:05;35.40;94.40
37380;DHT22;23252;-33.992;18.480;2023-01-10T16:25:36;35.20;94.50
37380;DHT22;23252;-33.992;18.480;2023-01-10T16:28:17;34.40;94.80
37380;DHT22;23252;-33.992;18.480;2023-01-10T16:30:45;33.70;95.20
37380;DHT22;23252;-33.992;18.480;2023-01-10T16:33:22;33.40;95.40
37380;DHT22;23252;-33.992;18.480;2023-01-10T16:35:53;33.40;95.50
37380;DHT22;23252;-33.992;18.480;2023-01-10T16:38:20;33.00;95.60
37380;DHT22;23252;-33.992;18.480;2023-01-10T16:40:57;32.60;95.90
37380;DHT22;23252;-33.992;18.480;2023-01-10T16:43:23;32.00;96.40
37380;DHT22;23252;-33.992;18.480;2023-01-10T16:45:55;31.20;96.40
37380;DHT22;23252;-33.992;18.480;2023-01-10T16:48:30;30.20;97.20
37380;DHT22;23252;-33.992;18.480;2023-01-10T16:51:18;29.40;97.80
37380;DHT22;23252;-33.992;18.480;2023-01-10T16:53:45;28.90;98.70
37380;DHT22;23252;-33.992;18.480;2023-01-10T16:56:17;28.60;99.00
37380;DHT22;23252;-33.992;18.480;2023-01-10T16:58:46;28.40;99.00
37380;DHT22;23252;-33.992;18.480;2023-01-10T17:01:17;28.40;99.90
37380;DHT22;23252;-33.992;18.480;2023-01-10T17:03:44;28.10;99.90
37380;DHT22;23252;-33.992;18.480;2023-01-10T17:06:13;27.60;99.90
37380;DHT22;23252;-33.992;18.480;2023-01-10T17:08:40;27.30;99.90
37380;DHT22;23252;-33.992;18.480;2023-01-10T17:11:14;27.10;99.90
37380;DHT22;23252;-33.992;18.480;2023-01-10T17:13:43;26.90;99.90
37380;DHT22;23252;-33.992;18.480;2023-01-10T17:16:10;26.90;99.90
37380;DHT22;23252;-33.992;18.480;2023-01-10T17:18:37;26.60;99.90
37380;DHT22;23252;-33.992;18.480;2023-01-10T17:21:03;26.50;99.90